createdAt,value
2023-07-08T00:00:29.529Z,0
2023-07-08T00:01:45.659Z,0
2023-07-08T00:03:01.783Z,0
2023-07-08T00:04:17.912Z,0
2023-07-08T00:05:33.060Z,0
2023-07-08T00:06:49.188Z,0
2023-07-08T00:08:05.328Z,0
2023-07-08T00:09:21.458Z,0
2023-07-08T00:10:37.591Z,0
2023-07-08T00:11:53.722Z,0
2023-07-08T00:13:09.853Z,0
2023-07-08T00:14:25.985Z,0
2023-07-08T00:15:42.111Z,0
2023-07-08T00:16:58.249Z,0
2023-07-08T00:18:14.384Z,0
2023-07-08T00:19:30.516Z,0
2023-07-08T00:20:46.643Z,0
2023-07-08T00:22:01.794Z,0
2023-07-08T00:23:17.913Z,0
2023-07-08T00:24:34.053Z,0
2023-07-08T00:25:50.184Z,0
2023-07-08T00:27:06.310Z,0
2023-07-08T00:28:22.446Z,0
2023-07-08T00:29:38.581Z,0
2023-07-08T00:30:54.719Z,0
2023-07-08T00:32:10.849Z,0
2023-07-08T00:33:26.972Z,0
2023-07-08T00:34:43.106Z,0
2023-07-08T00:35:59.230Z,0
2023-07-08T00:37:15.369Z,0
2023-07-08T00:38:31.519Z,0
2023-07-08T00:39:46.645Z,0
2023-07-08T00:41:02.775Z,0
2023-07-08T00:42:18.917Z,0
2023-07-08T00:43:35.046Z,0
2023-07-08T00:44:51.182Z,0
2023-07-08T00:46:07.300Z,0
2023-07-08T00:47:23.443Z,0
2023-07-08T00:48:39.570Z,0
2023-07-08T00:49:55.701Z,0
2023-07-08T00:51:11.836Z,0
2023-07-08T00:52:27.962Z,0
2023-07-08T00:53:44.102Z,0
2023-07-08T00:55:00.228Z,0
2023-07-08T00:56:15.370Z,0
2023-07-08T00:57:31.508Z,0
2023-07-08T00:58:47.643Z,0
2023-07-08T01:00:03.774Z,0
2023-07-08T01:01:19.900Z,0
2023-07-08T01:02:36.033Z,0
2023-07-08T01:03:52.166Z,0
2023-07-08T01:05:08.292Z,0
2023-07-08T01:06:24.422Z,0
2023-07-08T01:07:40.562Z,0
2023-07-08T01:08:56.681Z,0
2023-07-08T01:10:12.829Z,0
2023-07-08T01:11:28.949Z,0
2023-07-08T01:12:44.123Z,0
2023-07-08T01:14:00.240Z,0
2023-07-08T01:15:16.384Z,0
2023-07-08T01:16:32.518Z,0
2023-07-08T01:17:48.643Z,0
2023-07-08T01:19:04.782Z,0
2023-07-08T01:20:20.000Z,0
2023-07-08T01:21:37.044Z,0
2023-07-08T01:22:53.178Z,0
2023-07-08T01:24:09.305Z,0
2023-07-08T01:25:25.435Z,0
2023-07-08T01:26:41.575Z,0
2023-07-08T01:27:57.710Z,0
2023-07-08T01:29:13.834Z,0
2023-07-08T01:30:28.987Z,0
2023-07-08T01:31:45.120Z,0
2023-07-08T01:33:01.243Z,0
2023-07-08T01:34:17.379Z,0
2023-07-08T01:35:33.516Z,0
2023-07-08T01:36:49.640Z,0
2023-07-08T01:38:05.779Z,0
2023-07-08T01:39:21.911Z,0
2023-07-08T01:40:38.037Z,0
2023-07-08T01:41:54.176Z,0
2023-07-08T01:43:10.306Z,0
2023-07-08T01:44:26.432Z,0
2023-07-08T01:45:42.571Z,0
2023-07-08T01:46:57.723Z,0
2023-07-08T01:48:13.847Z,0
2023-07-08T01:49:29.986Z,0
2023-07-08T01:50:46.113Z,0
2023-07-08T01:52:02.240Z,0
2023-07-08T01:53:18.380Z,0
2023-07-08T01:54:34.500Z,0
2023-07-08T01:55:50.643Z,0
2023-07-08T01:57:06.770Z,0
2023-07-08T01:58:22.901Z,0
2023-07-08T01:59:39.036Z,0
2023-07-08T02:00:55.181Z,0
2023-07-08T02:02:11.299Z,0
2023-07-08T02:03:26.447Z,0
2023-07-08T02:04:42.581Z,0
2023-07-08T02:05:58.717Z,0
2023-07-08T02:07:14.844Z,0
2023-07-08T02:08:30.968Z,0
2023-07-08T02:09:47.106Z,0
2023-07-08T02:11:03.243Z,0
2023-07-08T02:12:19.375Z,0
2023-07-08T02:13:35.507Z,0
2023-07-08T02:14:51.637Z,0
2023-07-08T02:16:07.773Z,0
2023-07-08T02:17:23.898Z,0
2023-07-08T02:18:40.036Z,0
2023-07-08T02:19:56.174Z,0
2023-07-08T02:21:11.309Z,0
2023-07-08T02:22:27.441Z,0
2023-07-08T02:23:43.574Z,0
2023-07-08T02:24:59.702Z,0
2023-07-08T02:26:15.836Z,0
2023-07-08T02:27:31.975Z,0
2023-07-08T02:28:48.113Z,0
2023-07-08T02:30:04.244Z,0
2023-07-08T02:31:20.376Z,0
2023-07-08T02:32:36.494Z,0
2023-07-08T02:33:52.636Z,0
2023-07-08T02:35:08.771Z,0
2023-07-08T02:36:24.896Z,0
2023-07-08T02:37:40.050Z,0
2023-07-08T02:38:56.185Z,0
2023-07-08T02:40:12.303Z,0
2023-07-08T02:41:28.443Z,0
2023-07-08T02:42:44.572Z,0
2023-07-08T02:44:00.706Z,0
2023-07-08T02:45:16.843Z,0
2023-07-08T02:46:32.967Z,0
2023-07-08T02:47:49.097Z,0
2023-07-08T02:49:05.235Z,0
2023-07-08T02:50:21.361Z,0
2023-07-08T02:51:37.499Z,0
2023-07-08T02:52:53.629Z,0
2023-07-08T02:54:08.772Z,0
2023-07-08T02:55:24.909Z,0
2023-07-08T02:56:41.048Z,0
2023-07-08T02:57:57.175Z,0
2023-07-08T02:59:13.303Z,0
2023-07-08T03:00:29.445Z,4
2023-07-08T03:01:45.554Z,4
2023-07-08T03:03:01.700Z,0
2023-07-08T03:04:17.833Z,0
2023-07-08T03:05:33.972Z,4
2023-07-08T03:06:50.101Z,0
2023-07-08T03:08:06.236Z,4
2023-07-08T03:09:22.361Z,4
2023-07-08T03:10:38.492Z,4
2023-07-08T03:11:53.642Z,4
2023-07-08T03:13:09.773Z,4
2023-07-08T03:14:25.913Z,4
2023-07-08T03:15:42.041Z,8
2023-07-08T03:16:58.178Z,12
2023-07-08T03:18:14.300Z,12
2023-07-08T03:19:30.438Z,16
2023-07-08T03:20:46.561Z,16
2023-07-08T03:22:02.691Z,20
2023-07-08T03:23:18.000Z,28
2023-07-08T03:24:34.962Z,32
2023-07-08T03:25:51.091Z,40
2023-07-08T03:27:07.223Z,40
2023-07-08T03:28:22.373Z,44
2023-07-08T03:29:38.505Z,52
2023-07-08T03:30:54.639Z,72
2023-07-08T03:32:10.768Z,92
2023-07-08T03:33:26.000Z,112
2023-07-08T03:34:43.029Z,124
2023-07-08T03:35:59.161Z,140
2023-07-08T03:37:15.291Z,152
2023-07-08T03:38:31.427Z,164
2023-07-08T03:39:47.562Z,180
2023-07-08T03:41:03.687Z,196
2023-07-08T03:42:19.820Z,236
2023-07-08T03:43:35.955Z,296
2023-07-08T03:44:51.107Z,348
2023-07-08T03:46:07.233Z,392
2023-07-08T03:47:23.367Z,424
2023-07-08T03:48:39.498Z,432
2023-07-08T03:49:55.630Z,420
2023-07-08T03:51:11.760Z,400
2023-07-08T03:52:27.902Z,396
2023-07-08T03:53:44.031Z,404
2023-07-08T03:55:00.160Z,432
2023-07-08T03:56:16.299Z,468
2023-07-08T03:57:32.427Z,500
2023-07-08T03:58:48.000Z,508
2023-07-08T04:00:04.691Z,524
2023-07-08T04:01:20.812Z,532
2023-07-08T04:02:36.948Z,528
2023-07-08T04:03:53.079Z,528
2023-07-08T04:05:08.230Z,512
2023-07-08T04:06:24.364Z,488
2023-07-08T04:07:40.500Z,468
2023-07-08T04:08:56.624Z,440
2023-07-08T04:10:12.760Z,408
2023-07-08T04:11:28.891Z,396
2023-07-08T04:12:45.015Z,392
2023-07-08T04:14:01.149Z,396
2023-07-08T04:15:17.284Z,388
2023-07-08T04:16:33.422Z,368
2023-07-08T04:17:49.556Z,348
2023-07-08T04:19:05.681Z,340
2023-07-08T04:20:21.808Z,336
2023-07-08T04:21:36.969Z,328
2023-07-08T04:22:53.088Z,328
2023-07-08T04:24:09.230Z,324
2023-07-08T04:25:25.360Z,324
2023-07-08T04:26:41.479Z,320
2023-07-08T04:27:57.000Z,316
2023-07-08T04:29:13.750Z,320
2023-07-08T04:30:29.880Z,324
2023-07-08T04:31:46.003Z,324
2023-07-08T04:33:02.140Z,324
2023-07-08T04:34:18.283Z,328
2023-07-08T04:35:34.404Z,332
2023-07-08T04:36:50.546Z,340
2023-07-08T04:38:05.691Z,352
2023-07-08T04:39:21.830Z,372
2023-07-08T04:40:37.949Z,392
2023-07-08T04:41:54.093Z,408
2023-07-08T04:43:10.220Z,408
2023-07-08T04:44:26.355Z,408
2023-07-08T04:45:42.484Z,404
2023-07-08T04:46:58.613Z,404
2023-07-08T04:48:14.752Z,408
2023-07-08T04:49:30.878Z,416
2023-07-08T04:50:47.010Z,420
2023-07-08T04:52:03.145Z,424
2023-07-08T04:53:19.268Z,424
2023-07-08T04:54:35.401Z,436
2023-07-08T04:55:50.562Z,448
2023-07-08T04:57:06.681Z,456
2023-07-08T04:58:22.823Z,456
2023-07-08T04:59:38.952Z,452
2023-07-08T05:00:55.092Z,452
2023-07-08T05:02:11.208Z,456
2023-07-08T05:03:27.344Z,460
2023-07-08T05:04:43.471Z,460
2023-07-08T05:05:59.605Z,456
2023-07-08T05:07:15.747Z,456
2023-07-08T05:08:31.875Z,464
2023-07-08T05:09:48.010Z,476
2023-07-08T05:11:04.139Z,488
2023-07-08T05:12:19.294Z,500
2023-07-08T05:13:35.423Z,504
2023-07-08T05:14:51.550Z,496
2023-07-08T05:16:07.677Z,496
2023-07-08T05:17:23.816Z,500
2023-07-08T05:18:39.943Z,500
2023-07-08T05:19:56.062Z,512
2023-07-08T05:21:12.211Z,532
2023-07-08T05:22:28.335Z,560
2023-07-08T05:23:44.472Z,584
2023-07-08T05:25:00.612Z,600
2023-07-08T05:26:16.000Z,604
2023-07-08T05:27:32.868Z,596
2023-07-08T05:28:48.035Z,580
2023-07-08T05:30:04.162Z,568
2023-07-08T05:31:20.283Z,572
2023-07-08T05:32:36.431Z,576
2023-07-08T05:33:52.560Z,576
2023-07-08T05:35:08.693Z,572
2023-07-08T05:36:24.819Z,564
2023-07-08T05:37:40.957Z,568
2023-07-08T05:38:57.088Z,572
2023-07-08T05:40:13.214Z,588
2023-07-08T05:41:29.345Z,612
2023-07-08T05:42:45.483Z,624
2023-07-08T05:44:01.622Z,624
2023-07-08T05:45:16.763Z,636
2023-07-08T05:46:32.903Z,648
2023-07-08T05:47:49.027Z,664
2023-07-08T05:49:05.170Z,684
2023-07-08T05:50:21.291Z,696
2023-07-08T05:51:37.425Z,724
2023-07-08T05:52:53.559Z,764
2023-07-08T05:54:09.695Z,816
2023-07-08T05:55:25.826Z,856
2023-07-08T05:56:41.951Z,880
2023-07-08T05:57:58.092Z,892
2023-07-08T05:59:14.223Z,908
2023-07-08T06:00:30.354Z,912
2023-07-08T06:01:45.500Z,912
2023-07-08T06:03:01.629Z,920
2023-07-08T06:04:17.764Z,932
2023-07-08T06:05:33.000Z,940
2023-07-08T06:06:50.036Z,956
2023-07-08T06:08:06.157Z,964
2023-07-08T06:09:22.287Z,972
2023-07-08T06:10:38.426Z,980
2023-07-08T06:11:54.557Z,1000
2023-07-08T06:13:10.680Z,1028
2023-07-08T06:14:26.824Z,1072
2023-07-08T06:15:42.950Z,1132
2023-07-08T06:16:59.089Z,1208
2023-07-08T06:18:15.210Z,1284
2023-07-08T06:19:30.368Z,1368
2023-07-08T06:20:46.502Z,1472
2023-07-08T06:22:02.630Z,1584
2023-07-08T06:23:18.765Z,1720
2023-07-08T06:24:34.900Z,1872
2023-07-08T06:25:51.028Z,2060
2023-07-08T06:27:07.155Z,2268
2023-07-08T06:28:23.284Z,2504
2023-07-08T06:29:39.424Z,2720
2023-07-08T06:30:55.548Z,2892
2023-07-08T06:32:11.688Z,3044
2023-07-08T06:33:27.810Z,3188
2023-07-08T06:34:43.945Z,3352
2023-07-08T06:36:00.075Z,3556
2023-07-08T06:37:15.227Z,3780
2023-07-08T06:38:31.364Z,3980
2023-07-08T06:39:47.497Z,4172
2023-07-08T06:41:03.628Z,4320
2023-07-08T06:42:19.000Z,4492
2023-07-08T06:43:35.000Z,4736
2023-07-08T06:44:52.022Z,5028
2023-07-08T06:46:08.157Z,5284
2023-07-08T06:47:24.281Z,5472
2023-07-08T06:48:40.414Z,5552
2023-07-08T06:49:56.556Z,5540
2023-07-08T06:51:12.678Z,5492
2023-07-08T06:52:28.805Z,5424
2023-07-08T06:53:43.961Z,5352
2023-07-08T06:55:00.097Z,5284
2023-07-08T06:56:16.221Z,5288
2023-07-08T06:57:32.354Z,5636
2023-07-08T06:58:48.483Z,6232
2023-07-08T07:00:04.619Z,6900
2023-07-08T07:01:20.739Z,7860
2023-07-08T07:02:36.884Z,8928
2023-07-08T07:03:53.009Z,9272
2023-07-08T07:05:09.144Z,8640
2023-07-08T07:06:25.271Z,7628
2023-07-08T07:07:41.407Z,6780
2023-07-08T07:08:57.534Z,6684
2023-07-08T07:10:12.685Z,6860
2023-07-08T07:11:28.811Z,8124
2023-07-08T07:12:44.948Z,8780
2023-07-08T07:14:01.078Z,9696
2023-07-08T07:15:17.212Z,10592
2023-07-08T07:16:33.342Z,10080
2023-07-08T07:17:49.476Z,9660
2023-07-08T07:19:05.606Z,9748
2023-07-08T07:20:21.738Z,10220
2023-07-08T07:21:37.869Z,10796
2023-07-08T07:22:54.006Z,10616
2023-07-08T07:24:10.131Z,11256
2023-07-08T07:25:26.267Z,11040
2023-07-08T07:26:42.390Z,10940
2023-07-08T07:27:58.521Z,10824
2023-07-08T07:29:14.657Z,10004
2023-07-08T07:30:29.813Z,9400
2023-07-08T07:31:45.947Z,9076
2023-07-08T07:33:02.072Z,9248
2023-07-08T07:34:18.208Z,9276
2023-07-08T07:35:34.337Z,9272
2023-07-08T07:36:50.471Z,9372
2023-07-08T07:38:06.599Z,10020
2023-07-08T07:39:22.735Z,10772
2023-07-08T07:40:38.867Z,11580
2023-07-08T07:41:54.993Z,12836
2023-07-08T07:43:11.122Z,13388
2023-07-08T07:44:27.255Z,12720
2023-07-08T07:45:43.394Z,13316
2023-07-08T07:46:59.533Z,13528
2023-07-08T07:48:14.667Z,13840
2023-07-08T07:49:30.790Z,14912
2023-07-08T07:50:46.000Z,14332
2023-07-08T07:52:03.065Z,12800
2023-07-08T07:53:19.195Z,12128
2023-07-08T07:54:35.328Z,11484
2023-07-08T07:55:51.467Z,10476
2023-07-08T07:57:07.591Z,9844
2023-07-08T07:58:23.725Z,9936
2023-07-08T07:59:39.852Z,10700
2023-07-08T08:00:55.988Z,10020
2023-07-08T08:02:12.146Z,9856
2023-07-08T08:03:28.248Z,9404
2023-07-08T08:04:44.383Z,9336
2023-07-08T08:06:00.511Z,9860
2023-07-08T08:07:16.651Z,9808
2023-07-08T08:08:31.794Z,9672
2023-07-08T08:09:47.928Z,9348
2023-07-08T08:11:04.063Z,8128
2023-07-08T08:12:20.182Z,7740
2023-07-08T08:13:36.323Z,7736
2023-07-08T08:14:52.452Z,7972
2023-07-08T08:16:08.589Z,9060
2023-07-08T08:17:24.717Z,7796
2023-07-08T08:18:40.848Z,7700
2023-07-08T08:19:56.979Z,5888
2023-07-08T08:21:13.103Z,5116
2023-07-08T08:22:29.242Z,5772
2023-07-08T08:23:45.380Z,6236
2023-07-08T08:25:01.507Z,7464
2023-07-08T08:26:16.665Z,29952
2023-07-08T08:27:32.782Z,22656
2023-07-08T08:28:48.918Z,33952
2023-07-08T08:30:05.056Z,36512
2023-07-08T08:31:21.181Z,21664
2023-07-08T08:32:37.307Z,35200
2023-07-08T08:33:53.448Z,18528
2023-07-08T08:35:09.569Z,8920
2023-07-08T08:36:25.714Z,8840
2023-07-08T08:37:41.845Z,9140
2023-07-08T08:38:57.972Z,11188
2023-07-08T08:40:14.108Z,11440
2023-07-08T08:41:30.242Z,11036
2023-07-08T08:42:46.369Z,11232
2023-07-08T08:44:01.516Z,12644
2023-07-08T08:45:17.651Z,12404
2023-07-08T08:46:33.793Z,13908
2023-07-08T08:47:49.914Z,14924
2023-07-08T08:49:06.047Z,12896
2023-07-08T08:50:22.177Z,12364
2023-07-08T08:51:38.307Z,12700
2023-07-08T08:52:54.443Z,11388
2023-07-08T08:54:10.570Z,10972
2023-07-08T08:55:26.710Z,11172
2023-07-08T08:56:42.839Z,11360
2023-07-08T08:57:58.972Z,10624
2023-07-08T08:59:15.100Z,9940
2023-07-08T09:00:31.224Z,9996
2023-07-08T09:01:47.363Z,10324
2023-07-08T09:03:03.496Z,10744
2023-07-08T09:04:18.652Z,10584
2023-07-08T09:05:34.785Z,9760
2023-07-08T09:06:50.906Z,9652
2023-07-08T09:08:07.029Z,9664
2023-07-08T09:09:23.182Z,9148
2023-07-08T09:10:39.314Z,8796
2023-07-08T09:11:55.436Z,8588
2023-07-08T09:13:11.574Z,8216
2023-07-08T09:14:27.702Z,8244
2023-07-08T09:15:43.841Z,8476
2023-07-08T09:16:59.972Z,8504
2023-07-08T09:18:16.099Z,8048
2023-07-08T09:19:32.231Z,8512
2023-07-08T09:20:48.360Z,8784
2023-07-08T09:22:04.492Z,8788
2023-07-08T09:23:20.620Z,8736
2023-07-08T09:24:35.773Z,8944
2023-07-08T09:25:51.907Z,8980
2023-07-08T09:27:08.041Z,8912
2023-07-08T09:28:24.168Z,8708
2023-07-08T09:29:40.299Z,8780
2023-07-08T09:30:56.433Z,9164
2023-07-08T09:32:12.565Z,9800
2023-07-08T09:33:28.703Z,10212
2023-07-08T09:34:44.825Z,10192
2023-07-08T09:36:00.952Z,10196
2023-07-08T09:37:17.086Z,9984
2023-07-08T09:38:33.221Z,10336
2023-07-08T09:39:49.354Z,10792
2023-07-08T09:41:05.489Z,11096
2023-07-08T09:42:20.641Z,11000
2023-07-08T09:43:36.767Z,10944
2023-07-08T09:44:52.903Z,11688
2023-07-08T09:46:09.030Z,12412
2023-07-08T09:47:25.160Z,13248
2023-07-08T09:48:41.291Z,15040
2023-07-08T09:49:56.454Z,13360
2023-07-08T09:51:12.583Z,12884
2023-07-08T09:52:28.719Z,14428
2023-07-08T09:53:44.850Z,15784
2023-07-08T09:55:00.978Z,15856
2023-07-08T09:56:17.107Z,22432
2023-07-08T09:57:33.249Z,17984
2023-07-08T09:58:49.377Z,30624
2023-07-08T10:00:05.516Z,43552
2023-07-08T10:01:21.643Z,75392
2023-07-08T10:02:37.775Z,73184
2023-07-08T10:03:53.903Z,82080
2023-07-08T10:05:10.039Z,82176
2023-07-08T10:06:26.165Z,80928
2023-07-08T10:07:42.307Z,49984
2023-07-08T10:08:58.430Z,87104
2023-07-08T10:10:14.000Z,20128
2023-07-08T10:11:30.700Z,75872
2023-07-08T10:12:45.849Z,37920
2023-07-08T10:14:01.986Z,46112
2023-07-08T10:15:18.109Z,40416
2023-07-08T10:16:34.244Z,86624
2023-07-08T10:17:50.000Z,50400
2023-07-08T10:19:06.512Z,48768
2023-07-08T10:20:22.651Z,22432
2023-07-08T10:21:38.780Z,32768
2023-07-08T10:22:54.913Z,22176
2023-07-08T10:24:11.036Z,17504
2023-07-08T10:25:27.177Z,20000
2023-07-08T10:26:43.311Z,27328
2023-07-08T10:27:59.437Z,16128
2023-07-08T10:29:15.577Z,23392
2023-07-08T10:30:30.720Z,19712
2023-07-08T10:31:46.851Z,24640
2023-07-08T10:33:02.980Z,84384
2023-07-08T10:34:19.117Z,45344
2023-07-08T10:35:35.250Z,50304
2023-07-08T10:36:51.386Z,22592
2023-07-08T10:38:07.513Z,17632
2023-07-08T10:39:23.652Z,17312
2023-07-08T10:40:39.777Z,16704
2023-07-08T10:41:55.917Z,15316
2023-07-08T10:43:12.041Z,16800
2023-07-08T10:44:28.176Z,16672
2023-07-08T10:45:44.000Z,18624
2023-07-08T10:47:00.436Z,16288
2023-07-08T10:48:16.000Z,16096
2023-07-08T10:49:32.698Z,15356
2023-07-08T10:50:48.000Z,14884
2023-07-08T10:52:04.970Z,14972
2023-07-08T10:53:20.118Z,14860
2023-07-08T10:54:36.249Z,14308
2023-07-08T10:55:52.376Z,13180
2023-07-08T10:57:08.507Z,13168
2023-07-08T10:58:24.644Z,13180
2023-07-08T10:59:40.000Z,13204
2023-07-08T11:00:56.908Z,12428
2023-07-08T11:02:13.039Z,12476
2023-07-08T11:03:29.176Z,11480
2023-07-08T11:04:45.305Z,11404
2023-07-08T11:06:01.435Z,10988
2023-07-08T11:07:17.561Z,10504
2023-07-08T11:08:33.686Z,10104
2023-07-08T11:09:49.820Z,10760
2023-07-08T11:11:04.989Z,11860
2023-07-08T11:12:21.117Z,12588
2023-07-08T11:13:37.239Z,11860
2023-07-08T11:14:53.374Z,10948
2023-07-08T11:16:09.511Z,10680
2023-07-08T11:17:25.640Z,10424
2023-07-08T11:18:41.770Z,10336
2023-07-08T11:19:57.898Z,9904
2023-07-08T11:21:14.039Z,9716
2023-07-08T11:22:30.170Z,9744
2023-07-08T11:23:46.300Z,9980
2023-07-08T11:25:02.433Z,10096
2023-07-08T11:26:18.563Z,10580
2023-07-08T11:27:34.697Z,10888
2023-07-08T11:28:50.831Z,10584
2023-07-08T11:30:05.973Z,10332
2023-07-08T11:31:22.113Z,9900
2023-07-08T11:32:38.242Z,9624
2023-07-08T11:33:54.378Z,9440
2023-07-08T11:35:10.506Z,9552
2023-07-08T11:36:26.637Z,9828
2023-07-08T11:37:42.772Z,10592
2023-07-08T11:38:58.905Z,11236
2023-07-08T11:40:15.035Z,11748
2023-07-08T11:41:31.165Z,12136
2023-07-08T11:42:47.301Z,12472
2023-07-08T11:44:03.431Z,12608
2023-07-08T11:45:19.565Z,12412
2023-07-08T11:46:35.693Z,12152
2023-07-08T11:47:51.829Z,12352
2023-07-08T11:49:06.970Z,12264
2023-07-08T11:50:23.106Z,11252
2023-07-08T11:51:39.246Z,10300
2023-07-08T11:52:55.367Z,9904
2023-07-08T11:54:11.501Z,9472
2023-07-08T11:55:27.636Z,8896
2023-07-08T11:56:43.766Z,8484
2023-07-08T11:57:59.899Z,7880
2023-07-08T11:59:16.028Z,7624
2023-07-08T12:00:32.164Z,7344
2023-07-08T12:01:48.291Z,6964
2023-07-08T12:03:04.433Z,5928
2023-07-08T12:04:20.558Z,5564
2023-07-08T12:05:35.714Z,4788
2023-07-08T12:06:51.840Z,4508
2023-07-08T12:08:07.960Z,4932
2023-07-08T12:09:24.105Z,5368
2023-07-08T12:10:40.233Z,5944
2023-07-08T12:11:56.367Z,6336
2023-07-08T12:13:12.501Z,6848
2023-07-08T12:14:28.630Z,7416
2023-07-08T12:15:44.759Z,7896
2023-07-08T12:17:00.900Z,8452
2023-07-08T12:18:17.021Z,8852
2023-07-08T12:19:33.156Z,8680
2023-07-08T12:20:49.293Z,8324
2023-07-08T12:22:04.439Z,8016
2023-07-08T12:23:20.570Z,7928
2023-07-08T12:24:36.708Z,8008
2023-07-08T12:25:52.834Z,7808
2023-07-08T12:27:08.961Z,7096
2023-07-08T12:28:25.100Z,6128
2023-07-08T12:29:41.233Z,4968
2023-07-08T12:30:57.364Z,3788
2023-07-08T12:32:13.501Z,3068
2023-07-08T12:33:29.624Z,2772
2023-07-08T12:34:45.765Z,2520
2023-07-08T12:36:01.897Z,2244
2023-07-08T12:37:18.022Z,2028
2023-07-08T12:38:34.154Z,1932
2023-07-08T12:39:49.313Z,1864
2023-07-08T12:41:05.434Z,1836
2023-07-08T12:42:21.570Z,1820
2023-07-08T12:43:37.701Z,1816
2023-07-08T12:44:53.834Z,1800
2023-07-08T12:46:09.970Z,1792
2023-07-08T12:47:26.088Z,1764
2023-07-08T12:48:42.224Z,1744
2023-07-08T12:49:58.358Z,1740
2023-07-08T12:51:14.494Z,1736
2023-07-08T12:52:30.625Z,1724
2023-07-08T12:53:46.772Z,1724
2023-07-08T12:55:02.890Z,1708
2023-07-08T12:56:19.025Z,1700
2023-07-08T12:57:35.155Z,1684
2023-07-08T12:58:50.300Z,1668
2023-07-08T13:00:06.426Z,1668
2023-07-08T13:01:22.562Z,1664
2023-07-08T13:02:38.701Z,1668
2023-07-08T13:03:54.824Z,1656
2023-07-08T13:05:10.956Z,1672
2023-07-08T13:06:27.091Z,1676
2023-07-08T13:07:43.228Z,1676
2023-07-08T13:08:59.354Z,1680
2023-07-08T13:10:15.487Z,1676
2023-07-08T13:11:31.624Z,1676
2023-07-08T13:12:47.748Z,1668
2023-07-08T13:14:03.882Z,1644
2023-07-08T13:15:19.028Z,1660
2023-07-08T13:16:35.163Z,1648
2023-07-08T13:17:51.294Z,1644
2023-07-08T13:19:07.430Z,1628
2023-07-08T13:20:23.560Z,1632
2023-07-08T13:21:39.695Z,1624
2023-07-08T13:22:55.818Z,1612
2023-07-08T13:24:11.957Z,1604
2023-07-08T13:25:28.087Z,1600
2023-07-08T13:26:44.214Z,1600
2023-07-08T13:28:00.356Z,1596
2023-07-08T13:29:16.476Z,1588
2023-07-08T13:30:32.607Z,1588
2023-07-08T13:31:48.751Z,1580
2023-07-08T13:33:03.907Z,1572
2023-07-08T13:34:20.027Z,1568
2023-07-08T13:35:36.157Z,1564
2023-07-08T13:36:52.297Z,1556
2023-07-08T13:38:08.430Z,1544
2023-07-08T13:39:24.561Z,1536
2023-07-08T13:40:40.686Z,1532
2023-07-08T13:41:56.823Z,1524
2023-07-08T13:43:12.941Z,1516
2023-07-08T13:44:29.000Z,1508
2023-07-08T13:45:45.220Z,1508
2023-07-08T13:47:01.345Z,1500
2023-07-08T13:48:17.470Z,1492
2023-07-08T13:49:32.630Z,1480
2023-07-08T13:50:48.759Z,1480
2023-07-08T13:52:04.890Z,1476
2023-07-08T13:53:21.022Z,1476
2023-07-08T13:54:37.155Z,1480
2023-07-08T13:55:53.293Z,1472
2023-07-08T13:57:09.411Z,1460
2023-07-08T13:58:25.552Z,1448
2023-07-08T13:59:41.679Z,1444
2023-07-08T14:00:57.816Z,1444
2023-07-08T14:02:13.941Z,1456
2023-07-08T14:03:30.081Z,1472
2023-07-08T14:04:45.235Z,1480
2023-07-08T14:06:01.372Z,1476
2023-07-08T14:07:17.500Z,1464
2023-07-08T14:08:33.630Z,1456
2023-07-08T14:09:49.768Z,1448
2023-07-08T14:11:05.892Z,1440
2023-07-08T14:12:22.034Z,1436
2023-07-08T14:13:38.166Z,1440
2023-07-08T14:14:54.294Z,1436
2023-07-08T14:16:10.426Z,1440
2023-07-08T14:17:26.561Z,1444
2023-07-08T14:18:42.681Z,1452
2023-07-08T14:19:58.820Z,1468
2023-07-08T14:21:14.953Z,1472
2023-07-08T14:22:31.091Z,1472
2023-07-08T14:23:46.230Z,1472
2023-07-08T14:25:02.381Z,1472
2023-07-08T14:26:18.481Z,1464
2023-07-08T14:27:34.629Z,1460
2023-07-08T14:28:50.763Z,1440
2023-07-08T14:30:06.891Z,1444
2023-07-08T14:31:23.029Z,1440
2023-07-08T14:32:39.155Z,1436
2023-07-08T14:33:55.289Z,1440
2023-07-08T14:35:11.422Z,1436
2023-07-08T14:36:27.551Z,1436
2023-07-08T14:37:43.674Z,1428
2023-07-08T14:38:59.814Z,1424
2023-07-08T14:40:15.950Z,1428
2023-07-08T14:41:31.092Z,1432
2023-07-08T14:42:47.223Z,1464
2023-07-08T14:44:03.367Z,1716
2023-07-08T14:45:19.492Z,1740
2023-07-08T14:46:35.623Z,1612
2023-07-08T14:47:51.755Z,1484
2023-07-08T14:49:07.889Z,1420
2023-07-08T14:50:23.000Z,1408
2023-07-08T14:51:40.148Z,1396
2023-07-08T14:52:56.287Z,1388
2023-07-08T14:54:12.416Z,1392
2023-07-08T14:55:28.546Z,1396
2023-07-08T14:56:44.681Z,1476
2023-07-08T14:58:00.000Z,1648
2023-07-08T14:59:16.939Z,1864
2023-07-08T15:00:33.073Z,2080
2023-07-08T15:01:48.227Z,1944
2023-07-08T15:03:04.357Z,1652
2023-07-08T15:04:20.489Z,1592
2023-07-08T15:05:36.611Z,1884
2023-07-08T15:06:52.754Z,2132
2023-07-08T15:08:08.870Z,2212
2023-07-08T15:09:25.012Z,2224
2023-07-08T15:10:41.142Z,2244
2023-07-08T15:11:57.268Z,2272
2023-07-08T15:13:13.410Z,2116
2023-07-08T15:14:29.544Z,1876
2023-07-08T15:15:45.671Z,1752
2023-07-08T15:17:01.813Z,1688
2023-07-08T15:18:17.936Z,1616
2023-07-08T15:19:34.072Z,1556
2023-07-08T15:20:50.201Z,1500
2023-07-08T15:22:06.331Z,1568
2023-07-08T15:23:22.466Z,1772
2023-07-08T15:24:37.610Z,2048
2023-07-08T15:25:53.729Z,2228
2023-07-08T15:27:09.871Z,2392
2023-07-08T15:28:26.013Z,2620
2023-07-08T15:29:42.137Z,2660
2023-07-08T15:30:58.271Z,2524
2023-07-08T15:32:14.407Z,2464
2023-07-08T15:33:30.539Z,2268
2023-07-08T15:34:46.667Z,1996
2023-07-08T15:36:02.792Z,1776
2023-07-08T15:37:18.925Z,1688
2023-07-08T15:38:35.060Z,1676
2023-07-08T15:39:51.201Z,1496
2023-07-08T15:41:07.324Z,1400
2023-07-08T15:42:23.457Z,1452
2023-07-08T15:43:39.578Z,1512
2023-07-08T15:44:54.731Z,1472
2023-07-08T15:46:10.865Z,1392
2023-07-08T15:47:26.999Z,1360
2023-07-08T15:48:43.129Z,1356
2023-07-08T15:49:59.263Z,1360
2023-07-08T15:51:15.392Z,1360
2023-07-08T15:52:31.532Z,1344
2023-07-08T15:53:47.664Z,1324
2023-07-08T15:55:03.786Z,1300
2023-07-08T15:56:19.930Z,1284
2023-07-08T15:57:36.052Z,1276
2023-07-08T15:58:52.190Z,1268
2023-07-08T16:00:08.317Z,1264
2023-07-08T16:01:24.450Z,1260
2023-07-08T16:02:39.601Z,1260
2023-07-08T16:03:55.738Z,1248
2023-07-08T16:05:11.861Z,1236
2023-07-08T16:06:28.000Z,1232
2023-07-08T16:07:44.124Z,1240
2023-07-08T16:09:00.263Z,1228
2023-07-08T16:10:16.405Z,1192
2023-07-08T16:11:32.517Z,1164
2023-07-08T16:12:48.658Z,1164
2023-07-08T16:14:04.784Z,1168
2023-07-08T16:15:20.928Z,1164
2023-07-08T16:16:37.044Z,1164
2023-07-08T16:17:53.193Z,1164
2023-07-08T16:19:09.318Z,1176
2023-07-08T16:20:25.433Z,1168
2023-07-08T16:21:41.579Z,1188
2023-07-08T16:22:56.721Z,1204
2023-07-08T16:24:12.856Z,1224
2023-07-08T16:25:28.994Z,1232
2023-07-08T16:26:45.129Z,1232
2023-07-08T16:28:01.262Z,1232
2023-07-08T16:29:17.379Z,1208
2023-07-08T16:30:33.520Z,1196
2023-07-08T16:31:49.647Z,1188
2023-07-08T16:33:05.780Z,1180
2023-07-08T16:34:21.919Z,1192
2023-07-08T16:35:38.039Z,1208
2023-07-08T16:36:54.169Z,1208
2023-07-08T16:38:10.314Z,1228
2023-07-08T16:39:26.443Z,1224
2023-07-08T16:40:41.590Z,1220
2023-07-08T16:41:57.722Z,1212
2023-07-08T16:43:13.855Z,1200
2023-07-08T16:44:29.981Z,1180
2023-07-08T16:45:46.110Z,1176
2023-07-08T16:47:02.251Z,1172
2023-07-08T16:48:18.386Z,1172
2023-07-08T16:49:34.512Z,1172
2023-07-08T16:50:50.639Z,1160
2023-07-08T16:52:06.773Z,1152
2023-07-08T16:53:22.910Z,1156
2023-07-08T16:54:39.031Z,1168
2023-07-08T16:55:55.160Z,1156
2023-07-08T16:57:11.312Z,1144
2023-07-08T16:58:27.445Z,1132
2023-07-08T16:59:43.577Z,1132
2023-07-08T17:00:59.706Z,1144
2023-07-08T17:02:15.837Z,1144
2023-07-08T17:03:30.977Z,1140
2023-07-08T17:04:47.112Z,1140
2023-07-08T17:06:03.253Z,1128
2023-07-08T17:07:19.375Z,1116
2023-07-08T17:08:35.527Z,1108
2023-07-08T17:09:51.637Z,1092
2023-07-08T17:11:07.777Z,1080